Hassi-Messaoud, Algeria
Current Conditions -  °F | °C
As of 1:30 AM on Wednesday 26 Nov 2014 (Local Time) from DAUH Reporting Station
Clear Clear  
Wind Chill: 61°   Ceiling: Unl
Heat Index: 61°   Visibility: 6mi
Dew Point: 45°   Wind: 7mph
Humidity: 55%   Direction: 40°NE
Pressure: 29.91"   Gusts: NA
Location:  31.68°N, 6.07°E
Report Text: DAUH 260030Z 04006KT CAVOK 16/07 Q1013
Loading
Personal Weather Stations






























Interactive Weather Map New forecast layout! Learn more

10-Day Weather Forecast

Advertisements
Track Severe Weather on mobile